Time;durP1;ratioP1;P1;durP2;ratioP2;P2;SDS_P1;SDS_P2;PMS_P1;PMS_P2;Temp;Humidity;BMP_temperature;BMP_pressure;BME280_temperature;BME280_humidity;BME280_pressure;Samples;Min_cycle;Max_cycle;Signal;HPM_P1;HPM_P2
2022/04/20 00:00:52;;;;;;;1.65;0.77;;;8.90;81.20;;;;;;5061385;28;20052;-76
2022/04/20 00:03:18;;;;;;;2.63;1.00;;;8.90;80.70;;;;;;5062265;28;20445;-76
2022/04/20 00:05:43;;;;;;;2.35;1.08;;;8.90;80.80;;;;;;5044517;28;20036;-75
2022/04/20 00:08:09;;;;;;;4.43;1.33;;;8.80;81.10;;;;;;5061543;28;20174;-76
2022/04/20 00:10:34;;;;;;;3.55;1.17;;;8.90;81.20;;;;;;5061407;28;20044;-76
2022/04/20 00:13:00;;;;;;;2.35;1.17;;;8.80;81.30;;;;;;5044755;28;20120;-76
2022/04/20 00:15:26;;;;;;;2.00;1.08;;;8.80;81.40;;;;;;5044078;28;20128;-75
2022/04/20 00:17:51;;;;;;;3.38;1.20;;;8.80;80.90;;;;;;5044980;28;20044;-76
2022/04/20 00:20:17;;;;;;;3.25;1.40;;;8.80;81.10;;;;;;5040667;28;20098;-76
2022/04/20 00:22:43;;;;;;;2.00;1.27;;;8.80;81.80;;;;;;5042959;28;20498;-75
2022/04/20 00:25:09;;;;;;;3.90;1.25;;;8.80;81.80;;;;;;5061091;28;20028;-75
2022/04/20 00:27:36;;;;;;;3.47;1.40;;;8.70;82.10;;;;;;5061856;28;20036;-76
2022/04/20 00:30:07;;;;;;;3.13;1.17;;;8.70;81.80;;;;;;5061447;28;20055;-76
2022/04/20 00:32:33;;;;;;;2.05;1.10;;;8.70;82.30;;;;;;5061317;28;20119;-76
2022/04/20 00:34:58;;;;;;;1.80;1.17;;;8.60;82.30;;;;;;5061194;28;20500;-76
2022/04/20 00:37:24;;;;;;;1.70;0.93;;;8.60;82.20;;;;;;5061504;28;20052;-75
2022/04/20 00:39:50;;;;;;;2.50;1.23;;;8.60;82.30;;;;;;5043804;28;20036;-75
2022/04/20 00:42:16;;;;;;;3.80;1.33;;;8.60;82.30;;;;;;5060624;28;20052;-75
2022/04/20 00:44:42;;;;;;;3.42;1.42;;;8.60;82.70;;;;;;5062380;28;20105;-76
2022/04/20 00:47:10;;;;;;;2.17;1.10;;;8.60;82.80;;;;;;5063854;28;20029;-75
2022/04/20 00:49:37;;;;;;;3.35;1.55;;;8.50;82.90;;;;;;5063347;28;20061;-75
2022/04/20 00:52:04;;;;;;;3.22;1.33;;;8.50;84.30;;;;;;5062552;28;20064;-76
2022/04/20 00:54:29;;;;;;;2.03;1.00;;;8.40;83.10;;;;;;5065003;28;20045;-76
2022/04/20 00:56:55;;;;;;;2.10;0.95;;;8.40;84.10;;;;;;5063077;28;20041;-75
2022/04/20 00:59:25;;;;;;;3.10;1.80;;;8.40;83.80;;;;;;5063985;28;20497;-75
2022/04/20 01:01:51;;;;;;;2.90;1.33;;;8.40;84.40;;;;;;5047275;28;20048;-76
2022/04/20 01:04:17;;;;;;;2.67;1.45;;;8.40;84.50;;;;;;5049061;28;20037;-76
2022/04/20 01:06:42;;;;;;;5.47;1.77;;;8.30;85.00;;;;;;5063897;28;20029;-76
2022/04/20 01:09:09;;;;;;;2.40;1.27;;;8.30;84.60;;;;;;5064343;28;20040;-75
2022/04/20 01:11:35;;;;;;;4.18;1.13;;;8.30;84.80;;;;;;5048205;28;20036;-75
2022/04/20 01:14:01;;;;;;;2.25;1.27;;;8.30;84.90;;;;;;5047294;28;20060;-76
2022/04/20 01:16:26;;;;;;;3.67;1.08;;;8.30;85.40;;;;;;5064474;28;20489;-76
2022/04/20 01:18:53;;;;;;;2.35;1.25;;;8.30;85.30;;;;;;5065746;28;20047;-76
2022/04/20 01:21:19;;;;;;;2.53;1.20;;;8.20;85.30;;;;;;5044840;28;20037;-76
2022/04/20 01:23:45;;;;;;;3.63;1.48;;;8.20;85.50;;;;;;5064726;28;20029;-76
2022/04/20 01:26:11;;;;;;;2.67;1.33;;;8.20;86.10;;;;;;5064292;28;20414;-76
2022/04/20 01:28:41;;;;;;;2.53;1.25;;;8.20;85.80;;;;;;5062524;28;20044;-75
2022/04/20 01:31:07;;;;;;;3.13;1.48;;;8.10;86.00;;;;;;5046455;28;20064;-75
2022/04/20 01:33:33;;;;;;;4.63;1.20;;;8.10;86.40;;;;;;5046674;28;20508;-75
2022/04/20 01:35:59;;;;;;;3.00;1.35;;;8.10;86.20;;;;;;5047631;28;20040;-76
2022/04/20 01:38:26;;;;;;;3.63;1.63;;;8.10;86.70;;;;;;5063423;28;20536;-76
2022/04/20 01:40:52;;;;;;;2.35;1.23;;;8.00;86.80;;;;;;5061629;28;20049;-76
2022/04/20 01:43:18;;;;;;;3.40;0.88;;;8.10;87.30;;;;;;5046731;28;20028;-76
2022/04/20 01:45:43;;;;;;;2.05;1.02;;;8.00;87.60;;;;;;5045993;28;20037;-76
2022/04/20 01:48:09;;;;;;;2.53;1.30;;;8.00;87.80;;;;;;5063854;28;20049;-76
2022/04/20 01:51:46;;;;;;;2.47;1.33;;;7.90;88.60;;;;;;5047606;28;21704;-76
2022/04/20 01:53:21;;;;;;;2.72;1.35;;;7.90;88.20;;;;;;5063667;28;20045;-76
2022/04/20 01:55:47;;;;;;;2.08;1.00;;;7.90;88.50;;;;;;5062848;28;20123;-75
2022/04/20 01:58:12;;;;;;;2.15;0.90;;;7.80;88.60;;;;;;5046746;28;20120;-75
2022/04/20 02:00:38;;;;;;;3.42;1.63;;;7.80;89.00;;;;;;5063266;28;20068;-76
2022/04/20 02:03:03;;;;;;;3.85;1.50;;;7.70;89.20;;;;;;5063877;28;20044;-75
2022/04/20 02:05:29;;;;;;;4.75;1.20;;;7.70;89.70;;;;;;5060630;28;20033;-75
2022/04/20 02:07:55;;;;;;;3.10;1.52;;;7.70;90.00;;;;;;5046813;28;20033;-76
2022/04/20 02:10:22;;;;;;;3.28;1.55;;;7.70;90.00;;;;;;5063721;28;20036;-76
2022/04/20 02:12:47;;;;;;;1.65;0.73;;;7.60;90.00;;;;;;5068651;28;20036;-76
2022/04/20 02:15:13;;;;;;;2.10;1.20;;;7.60;90.00;;;;;;5045702;28;20737;-76
2022/04/20 02:17:39;;;;;;;2.83;1.40;;;7.60;90.20;;;;;;5050912;28;20119;-76
2022/04/20 02:20:05;;;;;;;8.52;1.73;;;7.60;90.40;;;;;;5049106;28;20452;-75
2022/04/20 02:22:31;;;;;;;5.63;1.92;;;7.50;90.40;;;;;;5064566;28;20079;-75
2022/04/20 02:24:59;;;;;;;2.63;1.67;;;7.50;90.70;;;;;;5066861;28;20073;-75
2022/04/20 02:27:25;;;;;;;3.70;1.70;;;7.50;90.70;;;;;;5067374;28;20455;-75
2022/04/20 02:29:51;;;;;;;3.22;1.40;;;7.60;91.00;;;;;;5047661;28;20071;-76
2022/04/20 02:32:17;;;;;;;3.58;1.55;;;7.50;90.70;;;;;;5044945;28;20075;-75
2022/04/20 02:34:42;;;;;;;2.85;1.45;;;7.40;90.70;;;;;;5063200;28;20040;-75
2022/04/20 02:37:08;;;;;;;3.03;1.30;;;7.50;90.80;;;;;;5075934;28;20109;-75
2022/04/20 02:39:35;;;;;;;3.70;1.25;;;7.40;90.70;;;;;;5063937;28;20049;-75
2022/04/20 02:42:01;;;;;;;2.05;1.20;;;7.40;90.90;;;;;;5061777;28;20486;-75
2022/04/20 02:44:27;;;;;;;3.08;1.27;;;7.40;90.80;;;;;;5045552;28;20052;-75
2022/04/20 02:46:52;;;;;;;2.08;1.10;;;7.40;91.00;;;;;;5060485;28;20115;-76
2022/04/20 02:49:18;;;;;;;2.47;1.25;;;7.40;90.70;;;;;;5063423;28;20047;-76
2022/04/20 02:51:44;;;;;;;3.47;1.25;;;7.40;90.80;;;;;;5043954;28;20045;-75
2022/04/20 02:54:09;;;;;;;3.83;1.45;;;7.30;90.80;;;;;;5063993;28;20082;-75
2022/04/20 02:56:35;;;;;;;3.25;1.48;;;7.30;91.20;;;;;;5045696;28;20119;-75
2022/04/20 02:59:00;;;;;;;4.00;1.75;;;7.20;91.20;;;;;;5062312;28;20068;-76
2022/04/20 03:01:28;;;;;;;3.17;1.30;;;7.10;91.40;;;;;;5046122;28;20044;-75
2022/04/20 03:03:53;;;;;;;3.38;1.27;;;7.10;91.70;;;;;;5045811;28;20037;-75
2022/04/20 03:06:19;;;;;;;2.40;1.27;;;7.00;91.70;;;;;;5045307;28;20035;-75
2022/04/20 03:08:46;;;;;;;3.70;1.83;;;7.00;91.90;;;;;;5045330;28;20102;-75
2022/04/20 03:11:11;;;;;;;3.42;1.25;;;7.00;92.10;;;;;;5045287;28;20135;-76
2022/04/20 03:13:37;;;;;;;2.20;1.25;;;7.00;92.10;;;;;;5062588;28;20040;-75
2022/04/20 03:16:03;;;;;;;3.50;1.40;;;6.90;92.50;;;;;;5061670;28;20482;-76
2022/04/20 03:18:32;;;;;;;2.67;1.17;;;6.90;92.50;;;;;;5061223;28;20040;-75
2022/04/20 03:21:00;;;;;;;2.35;1.35;;;6.80;92.60;;;;;;5044310;28;20040;-75
2022/04/20 03:23:25;;;;;;;4.28;1.58;;;6.80;92.90;;;;;;5062076;28;20215;-75
2022/04/20 03:25:51;;;;;;;3.17;1.63;;;6.80;92.60;;;;;;5062782;28;20470;-75
2022/04/20 03:28:17;;;;;;;4.25;1.90;;;6.70;93.00;;;;;;5063309;28;20032;-75
2022/04/20 03:30:43;;;;;;;3.20;1.23;;;6.70;93.00;;;;;;5061146;28;20266;-75
2022/04/20 03:33:11;;;;;;;3.03;1.35;;;6.70;93.20;;;;;;5061577;28;20573;-75
2022/04/20 03:35:38;;;;;;;2.92;1.38;;;6.70;93.20;;;;;;5061542;28;20040;-75
2022/04/20 03:38:07;;;;;;;3.78;1.45;;;6.70;93.40;;;;;;5060355;28;20060;-76
2022/04/20 03:40:33;;;;;;;4.20;1.50;;;6.60;93.40;;;;;;5062536;28;20466;-75
2022/04/20 03:42:59;;;;;;;2.47;1.27;;;6.70;93.50;;;;;;5062727;28;20090;-75
2022/04/20 03:45:25;;;;;;;2.28;1.05;;;6.60;93.70;;;;;;5062783;28;20035;-75
2022/04/20 03:47:50;;;;;;;2.80;1.30;;;6.60;93.60;;;;;;5061639;28;20047;-75
2022/04/20 03:50:16;;;;;;;4.60;1.63;;;6.60;93.60;;;;;;5061196;28;20028;-76
2022/04/20 03:52:42;;;;;;;2.50;1.60;;;6.60;93.80;;;;;;5059317;28;20032;-75
2022/04/20 03:55:08;;;;;;;2.78;1.02;;;6.60;93.40;;;;;;5044674;28;20086;-75
2022/04/20 03:57:33;;;;;;;2.70;1.25;;;6.60;93.50;;;;;;5058567;28;20036;-76
2022/04/20 03:59:59;;;;;;;3.05;1.30;;;6.60;93.60;;;;;;5062079;28;20039;-75
2022/04/20 04:02:24;;;;;;;3.65;1.75;;;6.50;93.50;;;;;;5042212;28;20041;-75
2022/04/20 04:04:50;;;;;;;4.00;1.80;;;6.50;93.70;;;;;;5045367;28;20067;-75
2022/04/20 04:07:16;;;;;;;2.20;1.20;;;6.50;93.70;;;;;;5044182;28;20504;-75
2022/04/20 04:09:42;;;;;;;3.08;1.50;;;6.50;93.80;;;;;;5059756;28;20033;-76
2022/04/20 04:12:09;;;;;;;7.32;1.42;;;6.50;93.90;;;;;;5062021;28;20615;-75
2022/04/20 04:14:39;;;;;;;1.95;1.13;;;6.50;93.90;;;;;;5044967;28;20041;-76
2022/04/20 04:17:05;;;;;;;2.72;1.25;;;6.50;94.30;;;;;;5044898;28;20045;-75
2022/04/20 04:19:31;;;;;;;2.78;1.60;;;6.40;94.10;;;;;;5061968;28;20144;-75
2022/04/20 04:21:57;;;;;;;4.80;1.83;;;6.50;94.10;;;;;;5063838;28;20686;-75
2022/04/20 04:24:34;;;;;;;4.00;2.10;;;6.50;94.10;;;;;;5048316;28;20032;-75
2022/04/20 04:27:00;;;;;;;2.72;1.20;;;6.40;94.20;;;;;;5049330;28;20031;-75
2022/04/20 04:29:27;;;;;;;2.42;1.25;;;6.50;94.30;;;;;;5066339;28;20032;-76
2022/04/20 04:31:53;;;;;;;3.17;1.90;;;6.50;94.10;;;;;;5048246;28;20040;-75
2022/04/20 04:34:19;;;;;;;5.82;1.80;;;6.50;94.30;;;;;;5049628;28;20126;-75
2022/04/20 04:36:44;;;;;;;2.50;1.10;;;6.50;94.10;;;;;;5064187;28;20060;-75
2022/04/20 04:39:10;;;;;;;1.92;1.10;;;6.50;94.30;;;;;;5064186;28;20033;-75
2022/04/20 04:41:36;;;;;;;2.33;1.23;;;6.50;93.90;;;;;;5049398;28;20056;-75
2022/04/20 04:44:01;;;;;;;2.65;1.13;;;6.50;94.00;;;;;;5048638;28;20618;-75
2022/04/20 04:49:11;;;;;;;2.97;1.45;;;6.50;94.10;;;;;;5062085;28;20127;-75
2022/04/20 04:51:36;;;;;;;3.10;1.55;;;6.50;93.90;;;;;;5064895;28;20054;-76
2022/04/20 04:54:02;;;;;;;5.45;1.40;;;6.50;93.90;;;;;;5062822;28;20040;-75
2022/04/20 04:56:28;;;;;;;3.20;1.48;;;6.50;93.90;;;;;;5065485;28;20102;-75
2022/04/20 04:58:53;;;;;;;2.95;1.35;;;6.50;94.20;;;;;;5064657;28;20158;-76
2022/04/20 05:01:19;;;;;;;3.80;1.63;;;6.50;94.00;;;;;;5065686;28;20056;-75
2022/04/20 05:03:44;;;;;;;2.20;1.10;;;6.50;94.10;;;;;;5064817;28;20032;-75
2022/04/20 05:06:10;;;;;;;2.15;1.13;;;6.60;94.20;;;;;;5064891;28;20094;-75
2022/04/20 05:08:36;;;;;;;3.15;1.20;;;6.60;94.20;;;;;;5062911;28;20043;-76
2022/04/20 05:11:01;;;;;;;2.58;1.65;;;6.60;94.30;;;;;;5047199;28;20115;-76
2022/04/20 05:13:27;;;;;;;3.90;1.67;;;6.60;94.40;;;;;;5048339;28;20052;-75
2022/04/20 05:15:53;;;;;;;3.05;1.63;;;6.70;94.40;;;;;;5065583;28;20044;-75
2022/04/20 05:18:18;;;;;;;2.75;1.65;;;6.70;94.40;;;;;;5064322;28;20049;-76
2022/04/20 05:20:44;;;;;;;5.03;1.50;;;6.70;94.50;;;;;;5064633;28;20090;-75
2022/04/20 05:23:10;;;;;;;3.00;1.70;;;6.70;94.40;;;;;;5061704;28;20041;-75
2022/04/20 05:25:35;;;;;;;3.25;1.40;;;6.70;94.20;;;;;;5062481;28;20094;-75
2022/04/20 05:28:01;;;;;;;4.25;1.40;;;6.80;94.30;;;;;;5065058;28;20035;-75
2022/04/20 05:30:27;;;;;;;2.70;1.40;;;6.80;94.20;;;;;;5063057;28;20040;-75
2022/04/20 05:32:53;;;;;;;2.22;1.17;;;6.80;94.20;;;;;;5062541;28;20058;-75
2022/04/20 05:35:18;;;;;;;2.85;1.20;;;6.80;94.10;;;;;;5044918;28;20044;-76
2022/04/20 05:43:12;;;;;;;3.45;1.50;;;6.90;94.10;;;;;;5054816;28;20044;-75
2022/04/20 05:45:38;;;;;;;2.17;1.30;;;6.90;93.90;;;;;;5062906;28;20037;-76
2022/04/20 05:48:04;;;;;;;2.75;1.20;;;7.00;93.60;;;;;;5042858;28;20044;-76
2022/04/20 05:50:30;;;;;;;6.35;1.58;;;7.00;93.60;;;;;;5058064;28;20091;-76
2022/04/20 05:52:55;;;;;;;1.85;1.13;;;7.00;93.70;;;;;;5059927;28;20647;-76
2022/04/20 05:55:21;;;;;;;2.55;1.48;;;7.00;93.50;;;;;;5063546;28;20063;-75
2022/04/20 05:57:47;;;;;;;3.35;1.55;;;7.00;93.50;;;;;;5045219;28;20787;-76
2022/04/20 06:00:14;;;;;;;3.35;1.48;;;7.10;93.50;;;;;;5061728;28;20082;-75
2022/04/20 06:02:40;;;;;;;3.78;1.73;;;7.10;93.50;;;;;;5062131;28;20070;-76
2022/04/20 06:05:07;;;;;;;2.78;1.63;;;7.10;93.30;;;;;;5058186;28;20441;-76
2022/04/20 06:07:33;;;;;;;3.53;1.10;;;7.10;93.20;;;;;;5060917;28;20036;-76
2022/04/20 06:09:59;;;;;;;8.77;1.80;;;7.20;93.20;;;;;;5057966;28;20114;-76
2022/04/20 06:12:25;;;;;;;4.00;1.60;;;7.20;93.50;;;;;;5063335;28;20551;-76
2022/04/20 06:14:50;;;;;;;4.05;1.88;;;7.20;93.40;;;;;;5045418;28;20294;-76
2022/04/20 06:17:16;;;;;;;2.10;1.23;;;7.30;93.30;;;;;;5064288;28;20040;-76
2022/04/20 06:19:42;;;;;;;1.67;1.17;;;7.30;93.20;;;;;;5044926;28;20048;-75
2022/04/20 06:22:07;;;;;;;3.92;1.85;;;7.30;93.20;;;;;;5060525;28;20044;-76
2022/04/20 06:24:33;;;;;;;5.57;1.50;;;7.40;93.00;;;;;;5062267;28;20120;-76
2022/04/20 06:26:59;;;;;;;3.08;1.42;;;7.40;92.90;;;;;;5060271;28;20646;-76
2022/04/20 06:29:24;;;;;;;3.70;1.55;;;7.50;92.80;;;;;;5045348;28;20036;-76
2022/04/20 06:31:51;;;;;;;2.47;1.30;;;7.50;92.60;;;;;;5064352;28;20040;-76
2022/04/20 06:34:17;;;;;;;2.70;1.35;;;7.50;92.50;;;;;;5039317;28;20105;-75
2022/04/20 06:36:43;;;;;;;4.57;1.38;;;7.60;92.60;;;;;;5039767;28;20052;-75
2022/04/20 06:39:09;;;;;;;5.85;1.48;;;7.60;92.50;;;;;;5056919;28;20044;-75
2022/04/20 06:41:34;;;;;;;1.75;1.13;;;7.60;92.80;;;;;;5057316;28;20067;-74
2022/04/20 06:44:00;;;;;;;2.13;1.15;;;7.70;92.60;;;;;;5058566;28;20552;-74
2022/04/20 06:46:26;;;;;;;2.65;1.50;;;7.70;92.70;;;;;;5059823;28;20485;-75
2022/04/20 06:48:51;;;;;;;4.22;1.30;;;7.80;92.70;;;;;;5060543;28;20131;-76
2022/04/20 06:51:17;;;;;;;3.55;1.88;;;7.90;92.60;;;;;;5043999;28;20127;-75
2022/04/20 06:58:31;;;;;;;3.20;1.70;;;8.00;92.20;;;;;;5052494;28;20036;-74
2022/04/20 06:59:12;;;;;;;2.85;1.52;;;8.10;92.10;;;;;;5061042;28;20055;-74
2022/04/20 07:01:38;;;;;;;5.18;1.85;;;8.20;92.10;;;;;;5061961;28;20037;-75
2022/04/20 07:04:03;;;;;;;3.10;1.30;;;8.20;92.20;;;;;;5062288;28;20036;-74
2022/04/20 07:06:29;;;;;;;3.25;1.90;;;8.30;92.00;;;;;;5044368;28;20560;-75
2022/04/20 07:08:55;;;;;;;3.03;1.40;;;8.40;92.00;;;;;;5059832;28;20456;-75
2022/04/20 07:11:20;;;;;;;5.70;1.75;;;8.40;91.90;;;;;;5044237;28;20067;-75
2022/04/20 07:13:46;;;;;;;2.33;1.33;;;8.50;91.60;;;;;;5060088;28;20390;-74
2022/04/20 07:16:13;;;;;;;2.80;1.50;;;8.50;91.50;;;;;;5060452;28;20052;-75
2022/04/20 07:18:38;;;;;;;12.63;1.63;;;8.60;91.70;;;;;;5041413;28;20064;-75
2022/04/20 07:21:04;;;;;;;4.85;1.63;;;8.60;91.40;;;;;;5059289;28;20074;-75
2022/04/20 07:23:30;;;;;;;3.42;1.70;;;8.60;91.50;;;;;;5062427;28;20158;-75
2022/04/20 07:25:55;;;;;;;2.33;1.42;;;8.70;91.40;;;;;;5042368;28;20424;-75
2022/04/20 07:28:21;;;;;;;3.55;1.50;;;8.70;91.20;;;;;;5039113;28;20477;-75
2022/04/20 07:30:47;;;;;;;2.17;1.40;;;8.80;90.90;;;;;;5061688;28;20044;-75
2022/04/20 07:33:16;;;;;;;2.88;1.30;;;8.80;90.90;;;;;;5058319;28;20046;-75
2022/04/20 07:35:46;;;;;;;2.05;1.08;;;8.90;90.30;;;;;;5045372;28;20103;-75
2022/04/20 07:38:14;;;;;;;3.65;1.38;;;8.90;89.80;;;;;;5043401;28;20345;-75
2022/04/20 07:40:40;;;;;;;3.78;1.13;;;9.00;88.50;;;;;;5060497;28;20435;-75
2022/04/20 07:43:06;;;;;;;2.90;1.42;;;9.00;87.60;;;;;;5059854;28;20139;-75
2022/04/20 07:45:32;;;;;;;1.42;0.80;;;9.10;88.60;;;;;;5058900;28;20479;-75
2022/04/20 07:47:58;;;;;;;2.10;1.23;;;9.10;88.20;;;;;;5057089;28;20029;-75
2022/04/20 07:50:24;;;;;;;2.05;1.00;;;9.20;86.70;;;;;;5043653;28;20086;-75
2022/04/20 07:52:58;;;;;;;2.15;1.08;;;9.20;86.80;;;;;;5059687;28;20405;-75
2022/04/20 07:55:24;;;;;;;1.83;1.15;;;9.30;85.60;;;;;;5059024;28;20359;-75
2022/04/20 07:57:52;;;;;;;1.48;0.82;;;9.40;85.60;;;;;;5049666;28;20428;-75
2022/04/20 08:00:19;;;;;;;1.42;0.82;;;9.40;84.70;;;;;;5059247;28;20048;-75
2022/04/20 08:02:45;;;;;;;2.08;1.25;;;9.50;83.20;;;;;;5061227;28;20502;-75
2022/04/20 08:05:12;;;;;;;1.50;0.93;;;9.60;83.70;;;;;;5046105;28;20116;-75
2022/04/20 08:07:38;;;;;;;1.90;0.85;;;9.60;83.50;;;;;;5061603;28;20074;-75
2022/04/20 08:10:06;;;;;;;1.92;1.13;;;9.70;83.00;;;;;;5047926;28;20044;-75
2022/04/20 08:12:42;;;;;;;0.70;0.50;;;9.70;82.90;;;;;;5058450;28;20124;-75
2022/04/20 08:15:09;;;;;;;2.03;1.10;;;9.80;80.40;;;;;;5048247;28;20040;-75
2022/04/20 08:17:36;;;;;;;2.72;1.40;;;9.90;80.50;;;;;;5063583;28;20072;-74
2022/04/20 08:20:03;;;;;;;1.40;0.77;;;9.90;80.40;;;;;;5065439;28;20523;-75
2022/04/20 08:22:29;;;;;;;2.05;0.80;;;9.90;79.50;;;;;;5064512;28;20046;-75
2022/04/20 08:24:55;;;;;;;1.50;0.80;;;10.00;79.20;;;;;;5048158;28;20036;-73
2022/04/20 08:27:20;;;;;;;3.72;0.90;;;10.00;79.00;;;;;;5062754;28;20037;-75
2022/04/20 08:29:47;;;;;;;1.75;0.93;;;10.00;76.90;;;;;;5047904;28;20048;-74
2022/04/20 08:32:17;;;;;;;4.85;1.05;;;10.10;77.60;;;;;;5063586;28;20692;-74
2022/04/20 08:34:43;;;;;;;4.50;1.15;;;10.20;76.30;;;;;;5064172;28;20037;-75
2022/04/20 08:37:10;;;;;;;1.65;0.88;;;10.30;72.40;;;;;;5047749;28;20555;-74
2022/04/20 08:39:37;;;;;;;1.13;0.70;;;10.40;71.60;;;;;;5062685;28;20409;-73
2022/04/20 08:42:04;;;;;;;1.58;1.00;;;10.40;72.00;;;;;;5062509;28;20506;-74
2022/04/20 08:44:33;;;;;;;1.05;0.73;;;10.40;73.30;;;;;;5061541;28;20041;-71
2022/04/20 08:47:02;;;;;;;1.88;0.95;;;10.40;71.50;;;;;;5043688;28;20044;-73
2022/04/20 08:49:27;;;;;;;0.82;0.55;;;10.50;70.50;;;;;;5060778;28;20047;-73
2022/04/20 08:54:38;;;;;;;1.80;0.68;;;10.50;71.60;;;;;;5062696;28;20350;-73
2022/04/20 08:57:16;;;;;;;1.40;0.70;;;10.60;71.30;;;;;;5060451;28;20052;-73
2022/04/20 08:59:49;;;;;;;1.77;0.63;;;10.60;70.30;;;;;;5063200;28;20146;-74
2022/04/20 09:02:16;;;;;;;1.77;0.88;;;10.60;67.90;;;;;;5061725;28;20040;-74
2022/04/20 09:04:41;;;;;;;1.58;0.60;;;10.70;66.40;;;;;;5061843;28;20043;-74
2022/04/20 09:07:08;;;;;;;1.00;0.40;;;10.80;66.10;;;;;;5041901;28;20040;-74
2022/04/20 09:09:34;;;;;;;1.58;0.70;;;10.80;66.20;;;;;;5045535;28;20043;-74
2022/04/20 09:12:00;;;;;;;1.30;0.70;;;10.80;66.00;;;;;;5045580;28;20119;-75
2022/04/20 09:14:29;;;;;;;1.25;0.63;;;10.90;65.30;;;;;;5047268;28;20052;-74
2022/04/20 09:16:55;;;;;;;0.82;0.30;;;10.90;65.60;;;;;;5060772;28;20516;-74
2022/04/20 09:19:25;;;;;;;1.45;0.60;;;11.00;65.90;;;;;;5061166;28;20056;-74
2022/04/20 09:21:52;;;;;;;0.75;0.43;;;11.00;65.00;;;;;;5060732;28;20059;-74
2022/04/20 09:24:17;;;;;;;2.42;0.60;;;11.10;64.30;;;;;;5061250;28;20788;-72
2022/04/20 09:26:54;;;;;;;1.38;0.63;;;11.20;63.20;;;;;;5062055;28;20064;-74
2022/04/20 09:29:21;;;;;;;1.40;0.73;;;11.20;60.40;;;;;;5061392;28;20037;-73
2022/04/20 09:31:48;;;;;;;1.30;0.60;;;11.20;61.70;;;;;;5060239;28;20106;-73
2022/04/20 09:34:30;;;;;;;1.00;0.50;;;11.20;60.00;;;;;;5060925;28;20590;-73
2022/04/20 09:36:57;;;;;;;0.40;0.30;;;11.30;60.60;;;;;;5042757;28;20048;-73
2022/04/20 09:39:25;;;;;;;0.75;0.50;;;11.30;61.70;;;;;;5062330;28;20047;-73
2022/04/20 09:42:02;;;;;;;0.75;0.55;;;11.30;60.90;;;;;;5063629;28;20051;-73
2022/04/20 09:44:30;;;;;;;1.73;0.50;;;11.40;59.80;;;;;;5061874;28;20524;-73
2022/04/20 09:49:54;;;;;;;;;;;11.40;60.80;;;;;;5060610;28;20694;-73
2022/04/20 09:52:19;;;;;;;0.88;0.50;;;11.50;54.40;;;;;;5056617;28;19920;-75
2022/04/20 09:54:57;;;;;;;1.67;0.70;;;11.60;59.20;;;;;;5060227;28;20432;-74
2022/04/20 09:57:23;;;;;;;1.10;0.50;;;11.60;60.00;;;;;;5042674;28;20398;-74
2022/04/20 09:59:57;;;;;;;1.02;0.50;;;11.60;60.00;;;;;;5061569;28;20070;-74
2022/04/20 10:02:23;;;;;;;1.50;0.73;;;11.60;58.90;;;;;;5056114;28;20127;-74
2022/04/20 10:04:49;;;;;;;1.92;0.80;;;11.60;59.50;;;;;;5061675;28;20472;-74
2022/04/20 10:07:15;;;;;;;0.73;0.40;;;11.70;59.60;;;;;;5058354;28;20040;-74
2022/04/20 10:09:43;;;;;;;1.90;0.60;;;11.70;59.10;;;;;;5057216;28;20369;-74
2022/04/20 10:12:11;;;;;;;2.08;0.73;;;11.70;59.20;;;;;;5044416;28;20473;-74
2022/04/20 10:17:25;;;;;;;0.60;0.40;;;11.80;58.90;;;;;;5063486;28;20119;-74
2022/04/20 10:19:53;;;;;;;1.55;0.70;;;11.80;59.30;;;;;;5056816;28;20071;-74
2022/04/20 10:22:20;;;;;;;1.10;0.60;;;11.90;58.60;;;;;;5057513;28;20043;-74
2022/04/20 10:24:49;;;;;;;0.93;0.60;;;11.90;59.40;;;;;;5058386;28;20032;-74
2022/04/20 10:27:27;;;;;;;1.95;0.63;;;11.90;59.60;;;;;;5042837;28;20129;-74
2022/04/20 10:30:01;;;;;;;1.67;0.77;;;11.90;58.80;;;;;;5076239;28;20095;-74
2022/04/20 10:32:45;;;;;;;1.10;0.50;;;11.90;58.70;;;;;;5044951;28;20048;-74
2022/04/20 10:35:11;;;;;;;0.73;0.50;;;12.00;58.10;;;;;;5044353;28;20090;-74
2022/04/20 10:37:37;;;;;;;0.77;0.57;;;12.10;59.20;;;;;;5059117;28;20052;-75
2022/04/20 10:40:16;;;;;;;1.25;0.65;;;12.10;59.30;;;;;;5062107;28;20040;-75
2022/04/20 10:42:44;;;;;;;1.52;0.70;;;12.20;58.00;;;;;;5044712;28;20067;-75
2022/04/20 10:45:11;;;;;;;1.65;0.70;;;12.20;58.50;;;;;;5061918;28;20474;-75
2022/04/20 10:47:42;;;;;;;0.98;0.60;;;12.20;59.00;;;;;;5044485;28;20481;-75
2022/04/20 10:50:14;;;;;;;2.40;0.70;;;12.30;59.00;;;;;;5062978;28;20029;-75
2022/04/20 10:52:43;;;;;;;8.18;1.10;;;12.30;57.60;;;;;;5042172;28;20040;-75
2022/04/20 10:55:12;;;;;;;1.40;0.75;;;12.40;58.20;;;;;;5060110;28;20051;-75
2022/04/20 10:57:38;;;;;;;3.92;1.10;;;12.40;58.40;;;;;;5062151;28;20040;-75
2022/04/20 11:00:19;;;;;;;1.58;0.80;;;12.40;58.10;;;;;;5045272;28;20300;-75
2022/04/20 11:03:01;;;;;;;1.48;0.60;;;12.50;57.50;;;;;;5043983;28;20624;-75
2022/04/20 11:05:27;;;;;;;0.90;0.60;;;12.60;57.20;;;;;;5060057;28;20040;-75
2022/04/20 11:08:07;;;;;;;1.40;0.70;;;12.60;57.10;;;;;;5043147;28;20032;-75
2022/04/20 11:10:41;;;;;;;1.85;0.65;;;12.60;57.20;;;;;;5059113;28;20043;-75
2022/04/20 11:19:13;;;;;;;1.92;0.63;;;12.80;55.50;;;;;;5056550;28;20052;-74
2022/04/20 11:22:05;;;;;;;0.88;0.50;;;12.80;55.70;;;;;;5057299;28;20048;-75
2022/04/20 11:24:30;;;;;;;0.68;0.50;;;12.80;56.10;;;;;;5057477;28;20040;-75
2022/04/20 11:26:58;;;;;;;1.20;0.68;;;12.80;56.00;;;;;;5058654;28;20036;-75
2022/04/20 11:29:30;;;;;;;2.60;0.68;;;12.90;55.70;;;;;;5059389;28;20040;-75
2022/04/20 11:32:00;;;;;;;0.77;0.50;;;12.90;55.30;;;;;;5060220;28;20072;-75
2022/04/20 11:34:27;;;;;;;0.50;0.40;;;13.00;55.00;;;;;;5060532;28;20045;-75
2022/04/20 11:36:54;;;;;;;1.20;0.55;;;13.00;55.00;;;;;;5059327;28;20052;-75
2022/04/20 11:39:25;;;;;;;1.05;0.50;;;13.00;55.20;;;;;;5076664;28;20074;-75
2022/04/20 11:41:55;;;;;;;2.58;0.80;;;13.10;55.30;;;;;;5060218;28;20055;-74
2022/04/20 11:44:28;;;;;;;1.75;0.57;;;13.10;55.10;;;;;;5058703;28;20029;-75
2022/04/20 11:46:58;;;;;;;1.00;0.70;;;13.20;53.30;;;;;;5059607;28;20083;-75
2022/04/20 11:49:36;;;;;;;0.80;0.57;;;13.30;53.20;;;;;;5058842;28;20048;-75
2022/04/20 11:52:06;;;;;;;0.63;0.40;;;13.20;54.10;;;;;;5056006;28;20505;-74
2022/04/20 11:54:33;;;;;;;0.90;0.55;;;13.20;54.50;;;;;;5060096;28;20830;-74
2022/04/20 11:56:58;;;;;;;2.05;0.95;;;13.30;54.40;;;;;;5059253;28;20571;-74
2022/04/20 11:59:28;;;;;;;1.17;0.40;;;13.30;53.60;;;;;;5042828;28;20082;-74
2022/04/20 12:01:55;;;;;;;0.95;0.40;;;13.30;54.00;;;;;;5058628;28;20464;-74
2022/04/20 12:04:23;;;;;;;1.33;0.50;;;13.30;54.30;;;;;;5043624;28;20028;-74
2022/04/20 12:06:57;;;;;;;1.50;0.52;;;13.30;54.20;;;;;;5056338;28;20037;-75
2022/04/20 12:09:25;;;;;;;0.70;0.40;;;13.30;53.60;;;;;;5043268;28;20036;-75
2022/04/20 12:11:55;;;;;;;1.52;0.77;;;13.30;53.60;;;;;;5057464;28;20580;-74
2022/04/20 12:14:24;;;;;;;1.25;0.60;;;13.30;53.20;;;;;;5043409;28;20032;-75
2022/04/20 12:16:55;;;;;;;1.20;0.50;;;13.40;53.10;;;;;;5058200;28;20094;-74
2022/04/20 12:19:22;;;;;;;1.02;0.60;;;13.40;53.20;;;;;;5042424;28;20036;-74
2022/04/20 12:21:49;;;;;;;1.63;0.50;;;13.60;52.30;;;;;;5036402;28;20040;-74
2022/04/20 12:24:43;;;;;;;1.10;0.60;;;13.70;52.40;;;;;;5060029;28;20049;-75
2022/04/20 12:27:51;;;;;;;1.13;0.47;;;13.60;52.20;;;;;;5054049;28;20060;-75
2022/04/20 12:30:35;;;;;;;0.63;0.50;;;13.70;51.30;;;;;;5017967;28;20040;-75
2022/04/20 12:33:04;;;;;;;1.15;0.52;;;13.70;48.10;;;;;;5042696;28;20040;-75
2022/04/20 12:35:30;;;;;;;0.77;0.50;;;13.80;51.30;;;;;;5042079;28;20115;-75
2022/04/20 12:37:56;;;;;;;0.85;0.50;;;13.80;51.80;;;;;;5056336;28;20045;-75
2022/04/20 12:40:24;;;;;;;0.98;0.43;;;13.90;50.90;;;;;;5037898;28;20417;-74
2022/04/20 12:43:07;;;;;;;1.45;0.60;;;13.90;50.80;;;;;;5063567;28;20701;-74
2022/04/20 12:45:33;;;;;;;1.27;0.68;;;13.90;50.00;;;;;;5061327;28;20463;-75
2022/04/20 12:48:11;;;;;;;2.17;0.40;;;13.90;51.20;;;;;;5059848;28;20586;-74
2022/04/20 12:50:38;;;;;;;1.45;0.68;;;13.90;50.30;;;;;;5046580;28;20025;-74
2022/04/20 12:53:04;;;;;;;1.05;0.60;;;13.90;51.00;;;;;;5045463;28;20098;-74
2022/04/20 12:55:39;;;;;;;0.98;0.50;;;14.00;51.20;;;;;;5062471;28;20058;-75
2022/04/20 13:04:13;;;;;;;1.75;0.68;;;14.00;51.00;;;;;;4971523;28;20050;-74
2022/04/20 13:06:39;;;;;;;0.50;0.40;;;14.00;51.40;;;;;;5031691;28;20055;-75
2022/04/20 13:09:04;;;;;;;1.55;0.70;;;14.00;51.40;;;;;;5040786;28;20117;-75
2022/04/20 13:11:30;;;;;;;1.05;0.45;;;14.00;51.40;;;;;;5059130;28;20040;-75
2022/04/20 13:13:59;;;;;;;0.75;0.43;;;14.10;51.50;;;;;;5063441;28;20143;-75
2022/04/20 13:16:25;;;;;;;1.08;0.70;;;14.10;52.10;;;;;;5044700;28;20036;-75
2022/04/20 13:18:51;;;;;;;1.20;0.60;;;14.20;51.90;;;;;;5063152;28;20127;-75
2022/04/20 13:21:16;;;;;;;3.08;1.73;;;14.20;51.00;;;;;;5042020;28;20590;-75
2022/04/20 13:23:42;;;;;;;0.90;0.60;;;14.30;50.80;;;;;;5062900;28;20028;-74
2022/04/20 13:28:54;;;;;;;2.03;0.85;;;14.30;51.10;;;;;;5060668;28;20049;-74